Port Angeles, WA

5:20 AM PDT on August 28, 2016 (GMT -0700)
Top of Mt. Pleasant Rd. | | Change Station

Elev 1237 ft 48.04 °N, 123.36 °W | Updated 24 seconds ago

Overcast
Overcast
53.6 °F
Feels Like 53.6 °F
N
0.0
Wind Variable Wind from SW
Gusts 0.0 mph

Today
High -- | Low -- °F
--% Chance of Precip.
Yesterday
High -- | Low -- °F
Precip. -- in
Pressure 30.04 in
Visibility 10.0 miles
Clouds Overcast 2900 ft
Dew Point 53 °F
Humidity 98%
Rainfall 0.00 in
Snow Depth Not available.
6:26 AM 8:00 PM
Waning Crescent, 16% visible
METAR KCLM 281153Z AUTO 00000KT 10SM OVC029 14/11 A3004 RMK AO2 SLP173 T01390106 10139 20122 51007
Pressure 30.04 in
Visibility 10.0 miles
Clouds Overcast 2900 ft
Dew Point 53 °F
Humidity 98%
Rainfall 0.00 in
Snow Depth Not available.
6:26 AM 8:00 PM
Waning Crescent, 16% visible
METAR KCLM 281153Z AUTO 00000KT 10SM OVC029 14/11 A3004 RMK AO2 SLP173 T01390106 10139 20122 51007

10-Day Weather Forecast

Almanac

Astronomy

Aug. 28, 2016 Rise Set
Actual Time
Civil Twilight
Nautical Twilight
Astronomical Twilight
Moon
Length of Visible Light
Length of Day
Tomorrow will be .
, % of the Moon is Illuminated

Today's Extremes

State Highs State Lows

Community

WunderPhotos

Upload Photos

1,935,557 photos uploaded!

WunderBlog® & News

Nearby

Air Quality

  Air Quality AQ Index Pollutant
Not available.

Snow Depth

Station Depth Elevation

Earthquake Activity

City Distance Mag. Time & Date
Minimum magnitude displayed is 2.5.

Coastal Water Temperatures

Place Temperature

Stations

Nearby Weather Stations

Station Location Temp. Windchill Dew Point Humidity Wind Precip. Elev Updated Type
                   

Watches & Warnings

There are currently no watches in effect.